Time;durP1;ratioP1;P1;durP2;ratioP2;P2;SDS_P1;SDS_P2;PMS_P1;PMS_P2;Temp;Humidity;BMP_temperature;BMP_pressure;BME280_temperature;BME280_humidity;BME280_pressure;Samples;Min_cycle;Max_cycle;Signal;HPM_P1;HPM_P2
2022/03/26 00:01:41;;;;;;;34.43;26.93;;;10.00;80.60;;;;;;5036124;28;20197;-69
2022/03/26 00:04:10;;;;;;;33.60;26.53;;;9.90;81.60;;;;;;5035992;28;20198;-69
2022/03/26 00:06:36;;;;;;;37.67;28.10;;;9.80;82.40;;;;;;5036043;28;20167;-68
2022/03/26 00:09:02;;;;;;;36.33;27.53;;;9.80;82.90;;;;;;5036265;28;20528;-68
2022/03/26 00:11:27;;;;;;;35.30;27.10;;;9.80;82.70;;;;;;5035821;28;20615;-69
2022/03/26 00:13:53;;;;;;;33.90;26.87;;;9.80;83.40;;;;;;5033240;28;20329;-69
2022/03/26 00:16:18;;;;;;;37.97;26.67;;;9.70;83.60;;;;;;5035816;28;20200;-68
2022/03/26 00:18:44;;;;;;;38.00;27.83;;;9.70;83.60;;;;;;5035865;28;20171;-68
2022/03/26 00:21:10;;;;;;;35.60;27.00;;;9.80;84.00;;;;;;5035698;28;20232;-69
2022/03/26 00:23:36;;;;;;;34.37;26.73;;;9.80;83.90;;;;;;5035644;28;20194;-69
2022/03/26 00:26:01;;;;;;;35.63;27.20;;;9.80;84.30;;;;;;5036137;28;20187;-68
2022/03/26 00:28:27;;;;;;;38.50;27.43;;;9.80;84.50;;;;;;5035374;28;20181;-68
2022/03/26 00:30:53;;;;;;;32.50;26.60;;;9.70;85.10;;;;;;5035785;28;20228;-68
2022/03/26 00:33:19;;;;;;;33.23;25.83;;;9.50;85.10;;;;;;5035928;28;20210;-68
2022/03/26 00:35:46;;;;;;;34.23;26.57;;;9.60;85.80;;;;;;5036042;28;20459;-70
2022/03/26 00:38:11;;;;;;;39.00;28.47;;;9.50;85.70;;;;;;5036052;28;20163;-70
2022/03/26 00:40:37;;;;;;;37.77;27.50;;;9.40;86.40;;;;;;5036033;28;20421;-70
2022/03/26 00:43:04;;;;;;;36.60;27.77;;;9.40;86.80;;;;;;5034836;28;20193;-69
2022/03/26 00:45:29;;;;;;;34.87;27.03;;;9.40;87.20;;;;;;5035438;28;20181;-69
2022/03/26 00:48:05;;;;;;;39.00;28.00;;;9.40;87.60;;;;;;5035485;28;20489;-69
2022/03/26 00:50:30;;;;;;;38.70;29.50;;;9.40;87.80;;;;;;5035529;28;20165;-69
2022/03/26 00:52:56;;;;;;;36.73;27.50;;;9.40;88.10;;;;;;5034208;28;20799;-70
2022/03/26 00:55:21;;;;;;;38.80;29.23;;;9.40;88.70;;;;;;5035222;28;20228;-69
2022/03/26 00:57:47;;;;;;;38.50;29.83;;;9.40;88.50;;;;;;5034329;28;20170;-69
2022/03/26 01:00:14;;;;;;;39.07;28.33;;;9.30;88.50;;;;;;5035064;28;20175;-67
2022/03/26 01:02:40;;;;;;;36.97;28.17;;;9.30;88.80;;;;;;5035037;28;20170;-69
2022/03/26 01:05:06;;;;;;;35.27;28.40;;;9.20;88.80;;;;;;5034826;28;20889;-70
2022/03/26 01:07:32;;;;;;;35.90;27.80;;;9.40;89.20;;;;;;5034897;28;20176;-69
2022/03/26 01:09:57;;;;;;;38.13;27.57;;;9.30;88.40;;;;;;5034703;28;20410;-69
2022/03/26 01:12:24;;;;;;;38.07;29.67;;;9.10;88.90;;;;;;5033469;28;20448;-69
2022/03/26 01:14:51;;;;;;;36.23;26.50;;;9.10;90.10;;;;;;5034897;28;20310;-69
2022/03/26 01:17:17;;;;;;;34.83;27.33;;;9.10;90.20;;;;;;5034658;28;20421;-69
2022/03/26 01:19:43;;;;;;;42.50;29.87;;;9.10;90.30;;;;;;5034779;28;20425;-69
2022/03/26 01:22:09;;;;;;;38.40;27.67;;;9.10;90.20;;;;;;5034898;28;20760;-69
2022/03/26 01:24:34;;;;;;;36.27;29.27;;;9.00;90.70;;;;;;5034788;28;20934;-69
2022/03/26 01:27:00;;;;;;;38.77;28.23;;;8.90;91.10;;;;;;5034491;28;20176;-69
2022/03/26 01:29:26;;;;;;;35.10;24.83;;;8.90;91.30;;;;;;5033982;28;20175;-69
2022/03/26 01:31:53;;;;;;;35.40;27.13;;;8.80;91.20;;;;;;5034399;28;20419;-69
2022/03/26 01:34:19;;;;;;;33.00;25.70;;;8.80;91.50;;;;;;5034576;28;20545;-69
2022/03/26 01:36:44;;;;;;;35.97;27.80;;;8.80;91.80;;;;;;5034725;28;20406;-69
2022/03/26 01:39:10;;;;;;;39.47;28.63;;;8.90;91.70;;;;;;5035076;28;20408;-69
2022/03/26 01:41:37;;;;;;;36.80;27.77;;;8.80;91.60;;;;;;5033210;28;20704;-69
2022/03/26 01:44:02;;;;;;;36.40;27.73;;;8.70;91.80;;;;;;5033830;28;20598;-69
2022/03/26 01:46:50;;;;;;;42.67;27.80;;;8.60;92.10;;;;;;5034429;28;20445;-69
2022/03/26 01:49:16;;;;;;;38.13;30.20;;;8.60;92.50;;;;;;5034565;28;20154;-69
2022/03/26 01:51:42;;;;;;;37.87;28.73;;;8.60;92.80;;;;;;5036736;28;20452;-69
2022/03/26 01:54:09;;;;;;;40.33;29.73;;;8.50;93.10;;;;;;5033984;28;20798;-68
2022/03/26 01:56:35;;;;;;;38.83;28.80;;;8.40;93.20;;;;;;5033960;28;20458;-68
2022/03/26 01:59:01;;;;;;;37.17;27.87;;;8.40;93.30;;;;;;5033736;28;20403;-68
2022/03/26 02:01:26;;;;;;;39.00;29.03;;;8.50;93.30;;;;;;5034192;28;20404;-68
2022/03/26 02:03:52;;;;;;;39.37;29.87;;;8.40;93.40;;;;;;5033913;28;20439;-68
2022/03/26 02:06:19;;;;;;;38.00;28.90;;;8.40;93.70;;;;;;5034411;28;20181;-68
2022/03/26 02:08:45;;;;;;;36.47;28.17;;;8.50;93.90;;;;;;5033914;28;20176;-68
2022/03/26 02:11:11;;;;;;;43.80;30.60;;;8.50;93.70;;;;;;5034058;28;20886;-68
2022/03/26 02:13:52;;;;;;;40.90;30.03;;;8.50;94.00;;;;;;5032364;28;20516;-68
2022/03/26 02:16:18;;;;;;;39.43;27.63;;;8.40;93.90;;;;;;5033718;28;20280;-68
2022/03/26 02:18:44;;;;;;;36.40;27.67;;;8.30;94.30;;;;;;5033936;28;20489;-70
2022/03/26 02:21:10;;;;;;;37.17;29.00;;;8.30;94.40;;;;;;5034046;28;20413;-69
2022/03/26 02:23:35;;;;;;;40.57;29.40;;;8.20;94.70;;;;;;5033535;28;20194;-69
2022/03/26 02:26:01;;;;;;;37.07;27.63;;;8.10;94.90;;;;;;5033541;28;20405;-69
2022/03/26 02:28:27;;;;;;;40.47;29.67;;;8.10;95.40;;;;;;5033360;28;20169;-69
2022/03/26 02:30:52;;;;;;;39.97;28.13;;;8.10;95.40;;;;;;5033467;28;20174;-69
2022/03/26 02:33:18;;;;;;;40.30;29.23;;;8.00;95.90;;;;;;5033430;28;20695;-69
2022/03/26 02:35:44;;;;;;;37.57;28.00;;;7.90;96.00;;;;;;5033359;28;20215;-69
2022/03/26 02:38:09;;;;;;;39.67;28.27;;;7.90;96.10;;;;;;5033850;28;20174;-69
2022/03/26 02:40:35;;;;;;;35.00;28.37;;;7.90;96.20;;;;;;5033409;28;20255;-69
2022/03/26 02:43:02;;;;;;;37.60;27.90;;;8.00;96.10;;;;;;5032961;28;20180;-69
2022/03/26 02:45:29;;;;;;;36.30;27.83;;;8.00;96.40;;;;;;5033449;28;20175;-69
2022/03/26 02:47:55;;;;;;;35.53;27.47;;;8.00;96.30;;;;;;5033424;28;20408;-69
2022/03/26 02:50:21;;;;;;;36.33;26.13;;;7.90;96.60;;;;;;5033093;28;20484;-69
2022/03/26 02:52:48;;;;;;;39.90;29.63;;;7.90;96.90;;;;;;5033242;28;20887;-70
2022/03/26 02:55:14;;;;;;;39.10;27.93;;;7.90;96.90;;;;;;5033340;28;20240;-69
2022/03/26 02:57:40;;;;;;;41.30;30.47;;;7.90;96.70;;;;;;5032643;28;20415;-69
2022/03/26 03:00:07;;;;;;;38.10;28.57;;;7.80;96.90;;;;;;5033032;28;20407;-69
2022/03/26 03:02:34;;;;;;;41.33;29.47;;;7.70;97.20;;;;;;5033686;28;20407;-69
2022/03/26 03:05:00;;;;;;;38.50;29.50;;;7.60;97.50;;;;;;5032997;28;20870;-69
2022/03/26 03:07:26;;;;;;;39.80;29.50;;;7.70;97.80;;;;;;5032907;28;20900;-69
2022/03/26 03:09:51;;;;;;;41.77;27.87;;;7.70;97.70;;;;;;5032611;28;20416;-69
2022/03/26 03:12:17;;;;;;;38.13;28.60;;;7.70;97.90;;;;;;5032050;28;20184;-69
2022/03/26 03:14:43;;;;;;;35.73;27.97;;;7.60;97.80;;;;;;5032465;28;20212;-69
2022/03/26 03:17:09;;;;;;;39.27;27.63;;;7.50;98.30;;;;;;5032757;28;20165;-69
2022/03/26 03:19:35;;;;;;;42.00;28.17;;;7.50;98.50;;;;;;5032971;28;20405;-69
2022/03/26 03:22:02;;;;;;;40.40;29.20;;;7.50;98.60;;;;;;5033554;28;20938;-69
2022/03/26 03:24:28;;;;;;;38.97;28.43;;;7.60;98.50;;;;;;5032974;28;20208;-69
2022/03/26 03:26:53;;;;;;;36.07;28.23;;;7.60;98.40;;;;;;5032813;28;20412;-70
2022/03/26 03:29:19;;;;;;;34.70;28.17;;;7.60;98.50;;;;;;5032309;28;20219;-69
2022/03/26 03:31:47;;;;;;;39.40;28.10;;;7.60;98.60;;;;;;5032691;28;20632;-68
2022/03/26 03:34:13;;;;;;;35.83;28.37;;;7.50;98.60;;;;;;5032594;28;20289;-70
2022/03/26 03:36:39;;;;;;;40.77;28.60;;;7.50;99.00;;;;;;5030962;28;20470;-68
2022/03/26 03:39:05;;;;;;;36.20;28.33;;;7.40;99.20;;;;;;5032652;28;20411;-68
2022/03/26 03:41:30;;;;;;;38.03;28.60;;;7.40;99.50;;;;;;5033026;28;20230;-70
2022/03/26 03:43:56;;;;;;;34.60;27.27;;;7.40;99.50;;;;;;5032279;28;20747;-70
2022/03/26 03:46:24;;;;;;;33.37;26.00;;;7.40;99.50;;;;;;5033151;28;20194;-70
2022/03/26 03:48:50;;;;;;;36.23;28.60;;;7.40;99.60;;;;;;5032607;28;20182;-70
2022/03/26 03:51:15;;;;;;;35.57;27.23;;;7.20;99.90;;;;;;5032491;28;20906;-70
2022/03/26 03:53:41;;;;;;;35.10;26.27;;;7.30;99.90;;;;;;5034753;28;20271;-69
2022/03/26 03:56:12;;;;;;;35.97;26.10;;;7.30;99.90;;;;;;5032367;28;20242;-69
2022/03/26 03:58:38;;;;;;;34.70;26.77;;;7.30;99.90;;;;;;5031959;28;20172;-69
2022/03/26 04:01:04;;;;;;;37.33;27.30;;;7.30;99.90;;;;;;5032303;28;20921;-70
2022/03/26 04:03:30;;;;;;;34.27;25.33;;;7.30;99.90;;;;;;5030971;28;20192;-70
2022/03/26 04:05:55;;;;;;;37.80;26.23;;;7.20;99.90;;;;;;5032279;28;20250;-70
2022/03/26 04:08:21;;;;;;;36.53;26.70;;;7.20;99.90;;;;;;5032246;28;20494;-70
2022/03/26 04:10:47;;;;;;;36.93;27.13;;;7.30;99.90;;;;;;5032416;28;20187;-70
2022/03/26 04:13:13;;;;;;;33.83;24.90;;;7.20;99.90;;;;;;5032635;28;20215;-69
2022/03/26 04:15:39;;;;;;;35.13;26.67;;;7.30;99.90;;;;;;5032261;28;20528;-69
2022/03/26 04:18:06;;;;;;;33.10;25.03;;;7.20;99.90;;;;;;5032087;28;20166;-69
2022/03/26 04:20:35;;;;;;;34.33;27.20;;;7.20;99.90;;;;;;5033816;28;20421;-69
2022/03/26 04:23:01;;;;;;;33.17;26.17;;;7.10;99.90;;;;;;5035934;28;20410;-70
2022/03/26 04:25:27;;;;;;;37.60;27.77;;;7.10;99.90;;;;;;5036440;28;20407;-69
2022/03/26 04:27:53;;;;;;;36.10;29.60;;;7.00;99.90;;;;;;5035435;28;20413;-70
2022/03/26 04:30:19;;;;;;;35.57;27.80;;;7.10;99.90;;;;;;5035573;28;20931;-70
2022/03/26 04:32:44;;;;;;;38.33;27.77;;;7.20;99.90;;;;;;5035523;28;20168;-68
2022/03/26 04:35:10;;;;;;;37.70;27.33;;;7.20;99.90;;;;;;5035492;28;20573;-69
2022/03/26 04:37:36;;;;;;;34.10;24.87;;;7.10;99.90;;;;;;5035418;28;20578;-69
2022/03/26 04:40:04;;;;;;;38.60;27.13;;;7.00;99.90;;;;;;5035332;28;20164;-69
2022/03/26 04:42:29;;;;;;;35.43;26.00;;;7.00;99.90;;;;;;5034781;28;20967;-70
2022/03/26 04:44:55;;;;;;;35.00;25.70;;;6.90;99.90;;;;;;5035211;28;20424;-69
2022/03/26 04:47:20;;;;;;;33.90;25.73;;;6.90;99.90;;;;;;5035421;28;20175;-68
2022/03/26 04:49:46;;;;;;;32.00;25.40;;;6.80;99.90;;;;;;5035655;28;20506;-69
2022/03/26 04:52:13;;;;;;;38.90;25.97;;;6.90;99.90;;;;;;5035393;28;20287;-69
2022/03/26 04:54:38;;;;;;;37.50;26.73;;;6.90;99.90;;;;;;5035280;28;20218;-69
2022/03/26 04:57:05;;;;;;;34.27;25.17;;;6.80;99.90;;;;;;5035628;28;20395;-68
2022/03/26 04:59:31;;;;;;;37.10;26.70;;;6.80;99.90;;;;;;5034848;28;20234;-68
2022/03/26 05:01:57;;;;;;;32.07;25.20;;;6.80;99.90;;;;;;5035206;28;20492;-69
2022/03/26 05:04:22;;;;;;;39.37;27.93;;;6.90;99.90;;;;;;5035007;28;20222;-69
2022/03/26 05:06:48;;;;;;;36.77;27.73;;;6.80;99.90;;;;;;5035144;28;20414;-69
2022/03/26 05:09:14;;;;;;;35.23;24.87;;;6.70;99.90;;;;;;5035423;28;20647;-69
2022/03/26 05:11:40;;;;;;;37.23;27.93;;;6.60;99.90;;;;;;5034883;28;20203;-67
2022/03/26 05:14:06;;;;;;;34.37;26.47;;;6.70;99.90;;;;;;5033484;28;20208;-68
2022/03/26 05:16:31;;;;;;;34.90;26.20;;;6.70;99.90;;;;;;5034954;28;20446;-68
2022/03/26 05:18:57;;;;;;;39.03;27.77;;;6.70;99.90;;;;;;5034641;28;20653;-69
2022/03/26 05:21:23;;;;;;;34.70;26.50;;;6.70;99.90;;;;;;5034761;28;20283;-69
2022/03/26 05:23:48;;;;;;;38.43;27.93;;;6.70;99.90;;;;;;5034933;28;20557;-69
2022/03/26 05:26:14;;;;;;;41.10;29.60;;;6.60;99.90;;;;;;5034947;28;20657;-69
2022/03/26 05:28:39;;;;;;;38.37;27.87;;;6.60;99.90;;;;;;5034151;28;20172;-69
2022/03/26 05:31:05;;;;;;;38.03;27.13;;;6.70;99.90;;;;;;5034657;28;20167;-69
2022/03/26 05:33:31;;;;;;;36.60;27.13;;;6.70;99.90;;;;;;5033988;28;20195;-69
2022/03/26 05:35:57;;;;;;;34.70;27.13;;;6.70;99.90;;;;;;5034539;28;20453;-69
2022/03/26 05:38:22;;;;;;;36.50;27.87;;;6.70;99.90;;;;;;5034792;28;20170;-69
2022/03/26 05:40:49;;;;;;;37.47;26.37;;;6.80;99.90;;;;;;5034536;28;20241;-69
2022/03/26 05:43:15;;;;;;;34.47;25.40;;;6.70;99.90;;;;;;5033883;28;20200;-69
2022/03/26 05:45:41;;;;;;;39.17;29.70;;;6.70;99.90;;;;;;5034615;28;20501;-69
2022/03/26 05:48:07;;;;;;;40.20;29.00;;;6.80;99.90;;;;;;5034237;28;20481;-68
2022/03/26 05:50:34;;;;;;;38.40;27.90;;;6.90;99.90;;;;;;5034226;28;20417;-68
2022/03/26 05:53:00;;;;;;;36.70;26.43;;;6.90;99.90;;;;;;5034373;28;20915;-68
2022/03/26 05:55:26;;;;;;;42.63;27.63;;;6.90;99.90;;;;;;5036510;28;20445;-68
2022/03/26 05:57:51;;;;;;;39.50;27.57;;;6.90;99.90;;;;;;5033727;28;20406;-68
2022/03/26 06:00:17;;;;;;;38.07;27.07;;;6.90;99.90;;;;;;5032823;28;20515;-68
2022/03/26 06:02:43;;;;;;;33.37;24.53;;;7.00;99.90;;;;;;5033986;28;20167;-69
2022/03/26 06:05:08;;;;;;;37.23;26.13;;;7.00;99.90;;;;;;5034039;28;20171;-68
2022/03/26 06:07:34;;;;;;;33.70;25.30;;;7.10;99.90;;;;;;5034224;28;20575;-69
2022/03/26 06:10:00;;;;;;;38.53;27.77;;;7.10;99.90;;;;;;5033873;28;20358;-69
2022/03/26 06:12:25;;;;;;;40.00;29.60;;;7.30;99.90;;;;;;5033397;28;20226;-69
2022/03/26 06:14:51;;;;;;;35.23;27.87;;;7.20;99.90;;;;;;5033501;28;20204;-68
2022/03/26 06:17:17;;;;;;;36.37;25.80;;;7.20;99.90;;;;;;5034414;28;20170;-69
2022/03/26 06:19:43;;;;;;;40.63;28.87;;;7.20;99.90;;;;;;5034139;28;20623;-69
2022/03/26 06:22:09;;;;;;;37.30;27.97;;;7.30;99.90;;;;;;5033923;28;20410;-68
2022/03/26 06:24:35;;;;;;;36.27;26.47;;;7.40;99.90;;;;;;5033797;28;20425;-69
2022/03/26 06:27:01;;;;;;;34.17;25.37;;;7.40;99.90;;;;;;5033756;28;20171;-69
2022/03/26 06:29:27;;;;;;;32.23;24.73;;;7.50;99.90;;;;;;5032408;28;20421;-70
2022/03/26 06:31:53;;;;;;;36.70;27.87;;;7.60;99.90;;;;;;5033818;28;20175;-69
2022/03/26 06:34:18;;;;;;;33.67;24.97;;;7.60;99.90;;;;;;5033898;28;20433;-70
2022/03/26 06:36:44;;;;;;;38.30;28.90;;;7.80;99.90;;;;;;5034109;28;20196;-69
2022/03/26 06:39:10;;;;;;;36.77;25.27;;;7.90;99.90;;;;;;5034075;28;20167;-69
2022/03/26 06:41:39;;;;;;;40.17;28.30;;;7.90;99.90;;;;;;5034127;28;20166;-69
2022/03/26 06:44:07;;;;;;;35.63;26.53;;;8.00;99.90;;;;;;5031649;28;20435;-70
2022/03/26 06:46:33;;;;;;;40.57;29.33;;;8.10;99.90;;;;;;5033838;28;20414;-69
2022/03/26 06:48:59;;;;;;;38.43;29.77;;;8.20;99.90;;;;;;5033848;28;20442;-69
2022/03/26 06:51:24;;;;;;;35.63;27.90;;;8.30;99.90;;;;;;5033860;28;20249;-69
2022/03/26 06:53:50;;;;;;;41.33;29.27;;;8.50;99.90;;;;;;5033174;28;20269;-69
2022/03/26 06:56:15;;;;;;;40.67;27.63;;;8.60;99.90;;;;;;5033859;28;20719;-69
2022/03/26 06:58:41;;;;;;;36.07;28.20;;;8.70;99.90;;;;;;5034833;28;20537;-69
2022/03/26 07:01:07;;;;;;;38.23;29.40;;;8.90;99.80;;;;;;5034580;28;20172;-69
2022/03/26 07:03:32;;;;;;;33.97;27.77;;;9.00;99.80;;;;;;5034022;28;20190;-69
2022/03/26 07:05:58;;;;;;;38.10;29.70;;;9.00;98.70;;;;;;5033259;28;20174;-69
2022/03/26 07:08:23;;;;;;;34.50;26.33;;;9.20;98.90;;;;;;5033096;28;20250;-69
2022/03/26 07:10:49;;;;;;;39.83;28.13;;;9.20;98.50;;;;;;5033193;28;20588;-69
2022/03/26 07:13:15;;;;;;;33.87;27.57;;;9.30;98.30;;;;;;5031453;28;20221;-69
2022/03/26 07:15:41;;;;;;;34.73;27.43;;;9.40;97.20;;;;;;5032803;28;20215;-69
2022/03/26 07:18:08;;;;;;;36.83;27.30;;;9.20;96.00;;;;;;5032630;28;20405;-69
2022/03/26 07:20:34;;;;;;;36.07;27.67;;;8.90;95.90;;;;;;5032840;28;20488;-69
2022/03/26 07:22:59;;;;;;;39.30;27.63;;;8.90;95.90;;;;;;5032950;28;20542;-69
2022/03/26 07:25:25;;;;;;;36.30;27.67;;;8.80;96.10;;;;;;5032790;28;20180;-68
2022/03/26 07:27:51;;;;;;;38.00;29.00;;;8.60;96.40;;;;;;5032182;28;20185;-69
2022/03/26 07:30:16;;;;;;;36.83;27.13;;;8.60;96.10;;;;;;5032729;28;20654;-69
2022/03/26 07:32:42;;;;;;;35.50;25.33;;;8.70;96.20;;;;;;5032508;28;20204;-69
2022/03/26 07:35:08;;;;;;;39.70;28.70;;;8.80;95.80;;;;;;5032316;28;20195;-69
2022/03/26 07:37:34;;;;;;;40.63;27.47;;;8.90;95.60;;;;;;5032780;28;20177;-69
2022/03/26 07:40:00;;;;;;;38.60;28.60;;;9.00;95.80;;;;;;5032624;28;20447;-69
2022/03/26 07:42:26;;;;;;;34.83;26.60;;;9.10;95.40;;;;;;5032520;28;20270;-70
2022/03/26 07:44:52;;;;;;;40.13;27.63;;;9.00;95.50;;;;;;5032640;28;20631;-69
2022/03/26 07:47:18;;;;;;;33.50;25.90;;;9.00;95.40;;;;;;5032128;28;20434;-68
2022/03/26 07:49:44;;;;;;;35.73;28.90;;;9.10;95.20;;;;;;5032506;28;20187;-69
2022/03/26 07:52:09;;;;;;;38.67;28.57;;;9.10;95.30;;;;;;5035032;28;20167;-69
2022/03/26 07:54:35;;;;;;;34.40;27.80;;;9.10;95.30;;;;;;5032505;28;20723;-69
2022/03/26 07:57:00;;;;;;;34.53;27.30;;;9.30;95.20;;;;;;5035951;28;20170;-69
2022/03/26 07:59:26;;;;;;;35.97;26.50;;;9.30;95.10;;;;;;5036337;28;20168;-69
2022/03/26 08:01:51;;;;;;;37.40;26.77;;;9.50;95.00;;;;;;5036395;28;20214;-68
2022/03/26 08:04:17;;;;;;;35.10;28.23;;;9.70;94.40;;;;;;5036048;28;20224;-68
2022/03/26 08:06:43;;;;;;;38.17;27.63;;;9.60;94.50;;;;;;5035990;28;20172;-68
2022/03/26 08:09:08;;;;;;;39.57;28.93;;;9.80;94.20;;;;;;5036049;28;20711;-68
2022/03/26 08:11:34;;;;;;;41.00;27.33;;;9.60;94.20;;;;;;5036529;28;20531;-68
2022/03/26 08:13:59;;;;;;;37.70;28.37;;;9.70;94.20;;;;;;5034574;28;20214;-69
2022/03/26 08:16:25;;;;;;;40.60;29.33;;;9.90;94.20;;;;;;5034627;28;20191;-69
2022/03/26 08:18:50;;;;;;;35.70;27.97;;;10.30;93.60;;;;;;5036114;28;20261;-68
2022/03/26 08:21:17;;;;;;;40.87;30.20;;;10.50;92.80;;;;;;5035886;28;20173;-69
2022/03/26 08:23:43;;;;;;;36.27;27.67;;;10.50;92.80;;;;;;5035612;28;20233;-69
2022/03/26 08:26:26;;;;;;;42.30;29.00;;;10.70;92.80;;;;;;5035950;28;20409;-70
2022/03/26 08:28:54;;;;;;;40.43;28.43;;;10.80;92.30;;;;;;5035246;28;20181;-69
2022/03/26 08:31:21;;;;;;;38.47;30.27;;;10.90;92.40;;;;;;5035612;28;20439;-70
2022/03/26 08:33:47;;;;;;;39.77;30.33;;;11.00;92.00;;;;;;5035842;28;20507;-69
2022/03/26 08:36:14;;;;;;;36.27;28.40;;;10.90;91.90;;;;;;5035424;28;20552;-70
2022/03/26 08:38:40;;;;;;;38.03;28.20;;;10.80;92.10;;;;;;5036562;28;20407;-70
2022/03/26 08:41:06;;;;;;;37.77;28.23;;;10.90;92.00;;;;;;5035559;28;20429;-70
2022/03/26 08:43:32;;;;;;;42.40;28.40;;;10.90;91.40;;;;;;5034348;28;20506;-70
2022/03/26 08:45:58;;;;;;;38.03;30.53;;;10.80;91.40;;;;;;5034027;28;20546;-68
2022/03/26 08:48:23;;;;;;;34.67;28.77;;;11.10;91.20;;;;;;5035306;28;20222;-70
2022/03/26 08:50:49;;;;;;;39.80;28.83;;;11.30;90.50;;;;;;5035320;28;20467;-69
2022/03/26 08:53:15;;;;;;;39.23;27.13;;;11.10;90.50;;;;;;5035053;28;20199;-70
2022/03/26 08:55:40;;;;;;;45.10;30.03;;;11.30;90.80;;;;;;5035338;28;20259;-70
2022/03/26 08:58:09;;;;;;;42.13;29.40;;;11.60;89.40;;;;;;5034311;28;20522;-70
2022/03/26 09:00:35;;;;;;;35.40;27.17;;;11.90;88.90;;;;;;5034209;28;20206;-69
2022/03/26 09:03:02;;;;;;;35.87;27.03;;;11.70;87.90;;;;;;5034998;28;20439;-70
2022/03/26 09:05:28;;;;;;;33.87;27.07;;;11.70;87.40;;;;;;5035157;28;20440;-70
2022/03/26 09:07:54;;;;;;;36.53;28.00;;;11.80;87.30;;;;;;5033791;28;20409;-70
2022/03/26 09:10:19;;;;;;;36.03;27.97;;;11.80;87.40;;;;;;5035574;28;20632;-70
2022/03/26 09:12:46;;;;;;;37.87;27.50;;;11.90;86.90;;;;;;5033977;28;20179;-70
2022/03/26 09:15:12;;;;;;;37.47;28.80;;;12.00;86.80;;;;;;5035027;28;20183;-69
2022/03/26 09:17:39;;;;;;;38.73;29.70;;;12.20;87.30;;;;;;5034903;28;20402;-70
2022/03/26 09:20:08;;;;;;;36.17;28.63;;;12.40;86.00;;;;;;5034869;28;20485;-69
2022/03/26 09:22:35;;;;;;;35.07;27.57;;;12.50;86.10;;;;;;5033904;28;20419;-69
2022/03/26 09:25:02;;;;;;;39.43;28.73;;;12.70;85.90;;;;;;5034978;28;20434;-69
2022/03/26 09:27:28;;;;;;;40.30;28.23;;;12.70;84.70;;;;;;5034678;28;20414;-69
2022/03/26 09:29:53;;;;;;;35.83;26.50;;;12.80;84.10;;;;;;5034418;28;20414;-69
2022/03/26 09:32:19;;;;;;;39.87;29.93;;;12.80;84.50;;;;;;5033422;28;20522;-68
2022/03/26 09:34:45;;;;;;;38.00;28.87;;;12.80;84.40;;;;;;5034733;28;20202;-69
2022/03/26 09:37:12;;;;;;;35.87;26.97;;;13.00;84.50;;;;;;5035015;28;20179;-68
2022/03/26 09:39:38;;;;;;;43.07;31.07;;;13.10;83.40;;;;;;5035249;28;20184;-69
2022/03/26 09:42:05;;;;;;;44.70;30.87;;;13.30;83.30;;;;;;5034988;28;20952;-69
2022/03/26 09:44:32;;;;;;;39.97;28.80;;;13.30;82.90;;;;;;5034092;28;20195;-69
2022/03/26 09:46:58;;;;;;;43.33;31.73;;;13.40;82.40;;;;;;5034242;28;20411;-70
2022/03/26 09:49:24;;;;;;;38.17;30.03;;;13.50;82.50;;;;;;5037005;28;20449;-67
2022/03/26 09:51:56;;;;;;;38.33;30.67;;;13.60;82.00;;;;;;5034713;28;20414;-69
2022/03/26 09:54:22;;;;;;;41.40;29.87;;;13.70;81.20;;;;;;5034755;28;20459;-69
2022/03/26 09:56:48;;;;;;;43.47;30.70;;;13.80;81.10;;;;;;5034045;28;20497;-68
2022/03/26 09:59:14;;;;;;;37.23;29.50;;;13.90;81.70;;;;;;5033619;28;20659;-68
2022/03/26 10:01:39;;;;;;;40.90;28.97;;;14.10;80.80;;;;;;5034319;28;20911;-68
2022/03/26 10:04:13;;;;;;;37.30;29.27;;;14.20;80.60;;;;;;5033943;28;20281;-68
2022/03/26 10:06:54;;;;;;;38.37;28.80;;;14.40;79.90;;;;;;5032704;28;20179;-69
2022/03/26 10:09:35;;;;;;;41.60;31.13;;;14.40;79.30;;;;;;5034062;28;20490;-68
2022/03/26 10:12:05;;;;;;;48.30;30.87;;;14.60;79.10;;;;;;5033694;28;20411;-70
2022/03/26 10:14:47;;;;;;;35.83;28.33;;;14.80;78.50;;;;;;5055501;23;20676;-69
2022/03/26 10:17:19;;;;;;;37.17;30.00;;;15.00;77.50;;;;;;5033796;28;20459;-70
2022/03/26 10:19:51;;;;;;;38.30;29.83;;;15.10;76.70;;;;;;5033276;28;20390;-70
2022/03/26 10:22:30;;;;;;;42.70;32.13;;;14.80;77.00;;;;;;5034191;28;20955;-70
2022/03/26 10:24:58;;;;;;;42.17;32.77;;;14.90;76.10;;;;;;5033592;28;20425;-71
2022/03/26 10:27:24;;;;;;;40.03;30.50;;;15.30;75.80;;;;;;5033389;28;20394;-70
2022/03/26 10:29:52;;;;;;;35.53;29.23;;;15.40;73.90;;;;;;5033441;28;20900;-71
2022/03/26 10:32:41;;;;;;;40.63;28.97;;;15.60;73.50;;;;;;5033686;28;20398;-70
2022/03/26 10:35:23;;;;;;;39.40;30.83;;;15.60;73.80;;;;;;5028571;28;20461;-69
2022/03/26 10:37:58;;;;;;;40.30;29.97;;;15.80;72.80;;;;;;5032335;28;20834;-70
2022/03/26 10:40:32;;;;;;;41.40;31.90;;;15.90;73.10;;;;;;5033597;28;20410;-69
2022/03/26 10:43:01;;;;;;;41.53;29.33;;;16.00;73.30;;;;;;5033783;28;20401;-70
2022/03/26 10:45:28;;;;;;;39.50;29.27;;;16.20;71.90;;;;;;5031892;28;20755;-71
2022/03/26 10:47:58;;;;;;;39.00;27.60;;;16.30;69.70;;;;;;5033146;28;20449;-70
2022/03/26 10:50:26;;;;;;;37.37;29.50;;;16.40;69.80;;;;;;5032928;28;20402;-70
2022/03/26 10:52:57;;;;;;;38.47;29.43;;;16.40;68.30;;;;;;5033154;28;20505;-71
2022/03/26 10:55:23;;;;;;;43.60;29.73;;;16.90;67.20;;;;;;5032849;28;20446;-71
2022/03/26 10:57:50;;;;;;;38.50;28.50;;;17.40;66.10;;;;;;5032394;28;20438;-72
2022/03/26 11:00:18;;;;;;;44.07;27.77;;;18.10;64.50;;;;;;5030969;28;20480;-71
2022/03/26 11:02:46;;;;;;;36.67;28.50;;;18.30;60.20;;;;;;5033287;28;20172;-71
2022/03/26 11:05:12;;;;;;;41.43;27.50;;;18.00;59.40;;;;;;5032876;28;20426;-70
2022/03/26 11:07:42;;;;;;;36.23;27.10;;;17.80;59.40;;;;;;5032941;28;20402;-72
2022/03/26 11:10:12;;;;;;;39.97;28.87;;;18.10;59.10;;;;;;5033840;28;20433;-71
2022/03/26 11:12:45;;;;;;;37.80;28.07;;;18.20;58.10;;;;;;5032814;28;20750;-70
2022/03/26 11:15:16;;;;;;;34.90;27.30;;;18.60;57.20;;;;;;5032345;28;20524;-70
2022/03/26 11:18:15;;;;;;;33.90;26.60;;;19.60;55.90;;;;;;5032738;28;20395;-69
2022/03/26 11:20:52;;;;;;;29.80;25.70;;;20.40;53.40;;;;;;5033123;28;20397;-70
2022/03/26 11:23:56;;;;;;;33.20;26.23;;;21.80;52.30;;;;;;5033619;28;20402;-70
2022/03/26 11:26:43;;;;;;;34.93;27.57;;;22.00;49.80;;;;;;5032954;28;20412;-71
2022/03/26 11:29:25;;;;;;;30.00;25.10;;;21.10;49.90;;;;;;5032332;28;20390;-72
2022/03/26 11:32:17;;;;;;;34.03;26.23;;;22.00;48.60;;;;;;5032422;28;20397;-72
2022/03/26 11:34:42;;;;;;;37.80;28.37;;;23.00;46.90;;;;;;5032732;28;20439;-71
2022/03/26 11:37:10;;;;;;;33.80;26.57;;;24.30;45.80;;;;;;5033235;28;20410;-71
2022/03/26 11:39:46;;;;;;;31.60;26.80;;;23.20;45.20;;;;;;5033058;28;20175;-70
2022/03/26 11:42:11;;;;;;;31.37;26.27;;;22.60;44.70;;;;;;5033278;28;20452;-72
2022/03/26 11:44:43;;;;;;;32.67;25.20;;;23.50;44.30;;;;;;5032231;28;20561;-72
2022/03/26 11:53:11;;;;;;;32.23;24.27;;;25.70;40.70;;;;;;5033198;28;20409;-71
2022/03/26 11:55:42;;;;;;;25.20;22.47;;;25.00;40.80;;;;;;5032664;28;20454;-71
2022/03/26 11:58:17;;;;;;;27.30;21.83;;;24.70;38.80;;;;;;5046053;28;20409;-73
2022/03/26 12:00:59;;;;;;;26.90;22.30;;;24.90;39.50;;;;;;5052123;28;20975;-73
2022/03/26 12:03:27;;;;;;;30.70;23.60;;;24.60;39.30;;;;;;5052706;28;20413;-72
2022/03/26 12:08:55;;;;;;;27.77;24.20;;;23.70;40.40;;;;;;5053149;28;20435;-72
2022/03/26 12:12:00;;;;;;;29.60;21.97;;;24.50;40.00;;;;;;5052262;28;20458;-71
2022/03/26 12:14:25;;;;;;;25.87;22.10;;;24.30;38.80;;;;;;4997805;28;20529;-72
2022/03/26 12:16:52;;;;;;;24.73;22.03;;;23.80;39.70;;;;;;5012790;28;20454;-72
2022/03/26 12:19:36;;;;;;;30.80;23.73;;;22.30;40.80;;;;;;5012836;28;20676;-71
2022/03/26 12:22:26;;;;;;;27.73;22.90;;;23.10;40.20;;;;;;5013082;28;20453;-72
2022/03/26 12:24:56;;;;;;;21.97;19.43;;;24.10;38.70;;;;;;5012921;28;20422;-72
2022/03/26 12:27:22;;;;;;;23.50;20.60;;;24.00;38.50;;;;;;5012836;28;20769;-71
2022/03/26 12:29:49;;;;;;;26.33;20.87;;;23.80;38.20;;;;;;5012815;28;20761;-71
2022/03/26 12:32:17;;;;;;;23.30;19.40;;;24.40;37.70;;;;;;5012718;28;20427;-71
2022/03/26 12:35:02;;;;;;;21.93;19.50;;;24.20;37.70;;;;;;5012643;28;20927;-70
2022/03/26 12:37:28;;;;;;;21.73;18.53;;;25.00;36.70;;;;;;5012751;28;20407;-72
2022/03/26 12:39:54;;;;;;;35.30;18.83;;;25.00;35.30;;;;;;5012532;28;20462;-71
2022/03/26 12:42:23;;;;;;;22.10;19.70;;;24.30;35.60;;;;;;5015201;28;20858;-71
2022/03/26 12:44:49;;;;;;;22.03;19.53;;;23.70;36.90;;;;;;5035573;28;20925;-70